map of WIC home
WIC - Airport
Location
City:  Wick, Caithness, Scotland, United Kingdom
Near (Alt.):Caithness
ICAO:EGPC
IATA:WIC

Details
Type:Airport (Aerodrome, Airfield)
Latitude:5827'32"N (58.458889)
Longitude:305'35"W (-3.093055)
Datum:WGS 1984
Elevation:126 ft (38 m)
Variation:2.49W (WMM2015 magnetic declination)
0.18 annual change
Runways:2
Longest:5988 × 148 ft (1825 × 45 m), paved

Time
Time Zone:UTC+0 (DST+1)
Local Time:

Weather
METAR:EGPC 210350Z AUTO 30007KT 9999 FEW009/// SCT015/// 08/07 Q0990

Related Locations
Nearby:
Farthest:SZS: 11552 mi / 18591 km
Ryan's Creek, Stewart Island, STL, NZ

Find:

   beyond  
but within

Other Information
Maps:
NOTAMs:
Links:
Sources:

  
  • flag of United Kingdom
  • flag of Scotland
  

Airport Diagram

Airport diagram for WIC

Larger airport diagram (OBSOLETE) from NGA

Sectional Chart

Flight Planning
at skyvector.com

Satellite Image

Google Maps Satellite view

 

Copyright © 2004-2018 Karl L. Swartz. All rights reserved.
The Great Circle Mapper name and logo are trademarks of the Great Circle Mapper.
All other trademarks mentioned herein belong to their respective owners.
Please see credits for attibutions and further copyright information.

  Follow gcmap on Facebook Follow gcmap on Twitter Follow gcmap on Google+ GCmap on LinkedIn

hCard Microformat

Geo Microformat